aviador You're here:

KRIW Decoded Metar

RIVERTON in WY, USA
Report Time2017-07-25 19:53:00
UTC Time2017-07-25 20:40:39
Flight Rules vfr VFR
Wind060° at 05 kt
W.Decomp.*RWY 01: 3.9 kt HW 3.1 kt RCW
RWY 10: 3.1 kt HW 3.9 kt LCW
W.Rank060° ranks 12
Current wind is below 060° avg. (6.6)
Visibility9999 m
Phenomena:N/A
Clouds:Overcast 095 Hf
Expected CloudBase > 3,600 ft AGL from Temp-Dew spread
Ceiling9,500 ft
Temp21°C (ISA +17)
Dew Point12°C (57% RH)
AAT19.9°C
QNH1023 hPa
Density Alt7,398 ft
Elevation5,568 ft
Report Wrong Elevation
Raw Report
METAR KRIW 251953Z AUTO 06005KT 10SM OVC095 21/12 A3020 RMK AO2 RAE21
SLP164 P0001 T02060122=

Extra information for KRIW:More info

Metar Taf Metar & Taf Last 4 Metars F.Rules Stats Wind Profile Meteogram Temp Stats Airport Information Weather charts Add Link Nearby VenuesMetar ALERT Operation Metar Decoded Social comments

AIRNAV info for KRIW